sensor_id;sensor_type;location;lat;lon;timestamp;temperature;humidity
5364;DHT22;2705;41.410;2.160;2022-08-11T00:02:00;29.00;99.90
5364;DHT22;2705;41.410;2.160;2022-08-11T00:04:35;29.00;99.90
5364;DHT22;2705;41.410;2.160;2022-08-11T00:07:06;29.00;99.90
5364;DHT22;2705;41.410;2.160;2022-08-11T00:09:36;28.90;99.90
5364;DHT22;2705;41.410;2.160;2022-08-11T00:12:13;29.00;99.90
5364;DHT22;2705;41.410;2.160;2022-08-11T00:14:43;29.00;99.90
5364;DHT22;2705;41.410;2.160;2022-08-11T00:17:15;28.90;99.90
5364;DHT22;2705;41.410;2.160;2022-08-11T00:19:46;29.00;99.90
5364;DHT22;2705;41.410;2.160;2022-08-11T00:22:38;29.00;99.90
5364;DHT22;2705;41.410;2.160;2022-08-11T00:25:11;28.90;99.90
5364;DHT22;2705;41.410;2.160;2022-08-11T00:27:42;28.90;99.90
5364;DHT22;2705;41.410;2.160;2022-08-11T00:30:13;28.70;99.90
5364;DHT22;2705;41.410;2.160;2022-08-11T00:32:51;28.80;99.90
5364;DHT22;2705;41.410;2.160;2022-08-11T00:35:26;28.80;99.90
5364;DHT22;2705;41.410;2.160;2022-08-11T00:38:16;28.60;99.90
5364;DHT22;2705;41.410;2.160;2022-08-11T00:40:56;28.70;99.90
5364;DHT22;2705;41.410;2.160;2022-08-11T00:43:41;28.70;99.90
5364;DHT22;2705;41.410;2.160;2022-08-11T00:46:21;28.60;99.90
5364;DHT22;2705;41.410;2.160;2022-08-11T00:49:06;28.30;99.90
5364;DHT22;2705;41.410;2.160;2022-08-11T00:51:58;28.30;99.90
5364;DHT22;2705;41.410;2.160;2022-08-11T00:54:56;28.40;99.90
5364;DHT22;2705;41.410;2.160;2022-08-11T00:57:52;28.50;99.90
5364;DHT22;2705;41.410;2.160;2022-08-11T01:00:31;28.70;99.90
5364;DHT22;2705;41.410;2.160;2022-08-11T01:03:30;28.30;99.90
5364;DHT22;2705;41.410;2.160;2022-08-11T01:06:31;28.20;99.90
5364;DHT22;2705;41.410;2.160;2022-08-11T01:09:19;28.20;99.90
5364;DHT22;2705;41.410;2.160;2022-08-11T01:21:39;28.10;99.90
5364;DHT22;2705;41.410;2.160;2022-08-11T01:24:59;28.00;99.90
5364;DHT22;2705;41.410;2.160;2022-08-11T01:28:13;28.30;99.90
5364;DHT22;2705;41.410;2.160;2022-08-11T01:31:28;28.30;99.90
5364;DHT22;2705;41.410;2.160;2022-08-11T01:40:38;28.20;99.90
5364;DHT22;2705;41.410;2.160;2022-08-11T01:46:45;28.30;99.90
5364;DHT22;2705;41.410;2.160;2022-08-11T01:49:22;28.20;99.90
5364;DHT22;2705;41.410;2.160;2022-08-11T01:52:18;28.30;99.90
5364;DHT22;2705;41.410;2.160;2022-08-11T01:55:10;28.10;99.90
5364;DHT22;2705;41.410;2.160;2022-08-11T01:57:46;28.30;99.90
5364;DHT22;2705;41.410;2.160;2022-08-11T02:00:20;28.20;99.90
5364;DHT22;2705;41.410;2.160;2022-08-11T02:02:55;28.20;99.90
5364;DHT22;2705;41.410;2.160;2022-08-11T02:05:45;28.20;99.90
5364;DHT22;2705;41.410;2.160;2022-08-11T02:08:27;28.10;99.90
5364;DHT22;2705;41.410;2.160;2022-08-11T02:11:17;28.10;99.90
5364;DHT22;2705;41.410;2.160;2022-08-11T02:14:20;28.10;99.90
5364;DHT22;2705;41.410;2.160;2022-08-11T02:17:10;28.20;99.90
5364;DHT22;2705;41.410;2.160;2022-08-11T02:19:51;28.20;99.90
5364;DHT22;2705;41.410;2.160;2022-08-11T02:22:48;28.20;99.90
5364;DHT22;2705;41.410;2.160;2022-08-11T02:25:38;28.20;99.90
5364;DHT22;2705;41.410;2.160;2022-08-11T02:28:22;28.20;99.90
5364;DHT22;2705;41.410;2.160;2022-08-11T02:31:02;28.20;99.90
5364;DHT22;2705;41.410;2.160;2022-08-11T02:34:17;28.10;99.90
5364;DHT22;2705;41.410;2.160;2022-08-11T02:36:54;28.10;99.90
5364;DHT22;2705;41.410;2.160;2022-08-11T02:39:30;28.00;99.90
5364;DHT22;2705;41.410;2.160;2022-08-11T02:42:18;28.00;99.90
5364;DHT22;2705;41.410;2.160;2022-08-11T02:45:26;28.00;99.90
5364;DHT22;2705;41.410;2.160;2022-08-11T02:48:05;28.00;99.90
5364;DHT22;2705;41.410;2.160;2022-08-11T02:51:03;27.90;99.90
5364;DHT22;2705;41.410;2.160;2022-08-11T02:53:43;27.90;99.90
5364;DHT22;2705;41.410;2.160;2022-08-11T02:56:36;27.80;99.90
5364;DHT22;2705;41.410;2.160;2022-08-11T02:59:12;27.80;99.90
5364;DHT22;2705;41.410;2.160;2022-08-11T03:02:06;27.70;99.90
5364;DHT22;2705;41.410;2.160;2022-08-11T03:04:48;27.80;99.90
5364;DHT22;2705;41.410;2.160;2022-08-11T03:07:30;27.80;99.90
5364;DHT22;2705;41.410;2.160;2022-08-11T03:10:07;27.90;99.90
5364;DHT22;2705;41.410;2.160;2022-08-11T03:12:44;27.80;99.90
5364;DHT22;2705;41.410;2.160;2022-08-11T03:15:42;27.90;99.90
5364;DHT22;2705;41.410;2.160;2022-08-11T03:18:40;27.90;99.90
5364;DHT22;2705;41.410;2.160;2022-08-11T03:21:19;27.80;99.90
5364;DHT22;2705;41.410;2.160;2022-08-11T03:23:55;27.80;99.90
5364;DHT22;2705;41.410;2.160;2022-08-11T03:26:32;27.80;99.90
5364;DHT22;2705;41.410;2.160;2022-08-11T03:29:10;27.80;99.90
5364;DHT22;2705;41.410;2.160;2022-08-11T03:31:55;27.80;99.90
5364;DHT22;2705;41.410;2.160;2022-08-11T03:34:30;27.70;99.90
5364;DHT22;2705;41.410;2.160;2022-08-11T03:37:22;27.70;99.90
5364;DHT22;2705;41.410;2.160;2022-08-11T03:40:20;27.70;99.90
5364;DHT22;2705;41.410;2.160;2022-08-11T03:43:17;27.60;99.90
5364;DHT22;2705;41.410;2.160;2022-08-11T03:45:57;27.60;99.90
5364;DHT22;2705;41.410;2.160;2022-08-11T03:48:39;27.60;99.90
5364;DHT22;2705;41.410;2.160;2022-08-11T03:51:17;27.60;99.90
5364;DHT22;2705;41.410;2.160;2022-08-11T03:54:09;27.50;99.90
5364;DHT22;2705;41.410;2.160;2022-08-11T03:57:15;27.50;99.90
5364;DHT22;2705;41.410;2.160;2022-08-11T04:03:36;27.40;99.90
5364;DHT22;2705;41.410;2.160;2022-08-11T04:09:58;27.40;99.90
5364;DHT22;2705;41.410;2.160;2022-08-11T04:15:51;27.30;99.90
5364;DHT22;2705;41.410;2.160;2022-08-11T04:25:13;27.30;99.90
5364;DHT22;2705;41.410;2.160;2022-08-11T04:31:18;27.30;99.90
5364;DHT22;2705;41.410;2.160;2022-08-11T04:34:41;27.40;99.90
5364;DHT22;2705;41.410;2.160;2022-08-11T04:37:37;27.40;99.90
5364;DHT22;2705;41.410;2.160;2022-08-11T04:40:39;27.30;99.90
5364;DHT22;2705;41.410;2.160;2022-08-11T04:50:33;27.30;99.90
5364;DHT22;2705;41.410;2.160;2022-08-11T04:53:49;27.30;99.90
5364;DHT22;2705;41.410;2.160;2022-08-11T04:56:42;27.30;99.90
5364;DHT22;2705;41.410;2.160;2022-08-11T04:59:46;27.30;99.90
5364;DHT22;2705;41.410;2.160;2022-08-11T05:09:22;27.40;99.90
5364;DHT22;2705;41.410;2.160;2022-08-11T05:15:12;27.60;99.90
5364;DHT22;2705;41.410;2.160;2022-08-11T05:18:15;27.70;99.90
5364;DHT22;2705;41.410;2.160;2022-08-11T05:21:05;27.70;99.90
5364;DHT22;2705;41.410;2.160;2022-08-11T05:23:57;27.60;99.90
5364;DHT22;2705;41.410;2.160;2022-08-11T05:26:47;27.50;99.90
5364;DHT22;2705;41.410;2.160;2022-08-11T05:29:42;27.50;99.90
5364;DHT22;2705;41.410;2.160;2022-08-11T05:32:35;27.50;99.90
5364;DHT22;2705;41.410;2.160;2022-08-11T05:35:32;27.40;99.90
5364;DHT22;2705;41.410;2.160;2022-08-11T05:38:26;27.40;99.90
5364;DHT22;2705;41.410;2.160;2022-08-11T05:41:14;27.30;99.90
5364;DHT22;2705;41.410;2.160;2022-08-11T05:44:04;27.30;99.90
5364;DHT22;2705;41.410;2.160;2022-08-11T05:46:51;27.40;99.90
5364;DHT22;2705;41.410;2.160;2022-08-11T05:49:49;27.50;99.90
5364;DHT22;2705;41.410;2.160;2022-08-11T05:52:44;27.60;99.90
5364;DHT22;2705;41.410;2.160;2022-08-11T05:55:31;27.60;99.90
5364;DHT22;2705;41.410;2.160;2022-08-11T05:58:34;27.60;99.90
5364;DHT22;2705;41.410;2.160;2022-08-11T06:01:09;27.50;99.90
5364;DHT22;2705;41.410;2.160;2022-08-11T06:03:43;27.60;99.90
5364;DHT22;2705;41.410;2.160;2022-08-11T06:06:32;27.60;99.90
5364;DHT22;2705;41.410;2.160;2022-08-11T06:09:02;27.70;99.90
5364;DHT22;2705;41.410;2.160;2022-08-11T06:11:36;27.70;99.90
5364;DHT22;2705;41.410;2.160;2022-08-11T06:14:11;27.70;99.90
5364;DHT22;2705;41.410;2.160;2022-08-11T06:16:43;27.70;99.90
5364;DHT22;2705;41.410;2.160;2022-08-11T06:19:15;27.80;99.90
5364;DHT22;2705;41.410;2.160;2022-08-11T06:21:47;27.90;99.90
5364;DHT22;2705;41.410;2.160;2022-08-11T06:24:18;28.00;99.90
5364;DHT22;2705;41.410;2.160;2022-08-11T06:26:50;28.20;99.90
5364;DHT22;2705;41.410;2.160;2022-08-11T06:29:48;28.20;99.90
5364;DHT22;2705;41.410;2.160;2022-08-11T06:32:28;28.30;99.90
5364;DHT22;2705;41.410;2.160;2022-08-11T06:35:11;28.30;99.90
5364;DHT22;2705;41.410;2.160;2022-08-11T06:37:57;28.40;99.90
5364;DHT22;2705;41.410;2.160;2022-08-11T06:40:35;28.50;99.90
5364;DHT22;2705;41.410;2.160;2022-08-11T06:43:15;28.60;99.90
5364;DHT22;2705;41.410;2.160;2022-08-11T06:45:52;28.90;99.90
5364;DHT22;2705;41.410;2.160;2022-08-11T06:48:24;28.90;99.90
5364;DHT22;2705;41.410;2.160;2022-08-11T06:50:58;29.00;99.90
5364;DHT22;2705;41.410;2.160;2022-08-11T06:53:43;29.00;99.90
5364;DHT22;2705;41.410;2.160;2022-08-11T06:56:35;28.90;99.90
5364;DHT22;2705;41.410;2.160;2022-08-11T06:59:42;29.00;99.90
5364;DHT22;2705;41.410;2.160;2022-08-11T07:02:31;29.30;99.90
5364;DHT22;2705;41.410;2.160;2022-08-11T07:05:06;29.40;99.90
5364;DHT22;2705;41.410;2.160;2022-08-11T07:08:18;29.50;99.90
5364;DHT22;2705;41.410;2.160;2022-08-11T07:11:53;29.50;99.90
5364;DHT22;2705;41.410;2.160;2022-08-11T07:14:47;29.60;99.90
5364;DHT22;2705;41.410;2.160;2022-08-11T07:17:41;29.60;99.90
5364;DHT22;2705;41.410;2.160;2022-08-11T07:20:16;29.80;99.90
5364;DHT22;2705;41.410;2.160;2022-08-11T07:23:06;29.90;99.90
5364;DHT22;2705;41.410;2.160;2022-08-11T07:25:55;29.80;99.90
5364;DHT22;2705;41.410;2.160;2022-08-11T07:28:47;29.90;99.90
5364;DHT22;2705;41.410;2.160;2022-08-11T07:31:31;30.00;99.90
5364;DHT22;2705;41.410;2.160;2022-08-11T07:34:14;30.00;99.90
5364;DHT22;2705;41.410;2.160;2022-08-11T07:36:49;30.10;99.90
5364;DHT22;2705;41.410;2.160;2022-08-11T07:39:21;30.00;99.90
5364;DHT22;2705;41.410;2.160;2022-08-11T07:41:55;30.20;99.90
5364;DHT22;2705;41.410;2.160;2022-08-11T07:44:27;30.30;99.90
5364;DHT22;2705;41.410;2.160;2022-08-11T07:47:01;30.50;99.90
5364;DHT22;2705;41.410;2.160;2022-08-11T07:49:49;30.60;99.90
5364;DHT22;2705;41.410;2.160;2022-08-11T07:52:38;30.70;99.90
5364;DHT22;2705;41.410;2.160;2022-08-11T07:55:12;30.60;99.90
5364;DHT22;2705;41.410;2.160;2022-08-11T07:57:44;30.50;99.90
5364;DHT22;2705;41.410;2.160;2022-08-11T08:00:50;30.50;99.90
5364;DHT22;2705;41.410;2.160;2022-08-11T08:03:50;30.80;99.90
5364;DHT22;2705;41.410;2.160;2022-08-11T08:06:38;31.00;99.90
5364;DHT22;2705;41.410;2.160;2022-08-11T08:09:25;30.90;99.90
5364;DHT22;2705;41.410;2.160;2022-08-11T08:12:12;30.80;99.90
5364;DHT22;2705;41.410;2.160;2022-08-11T08:15:04;30.90;99.90
5364;DHT22;2705;41.410;2.160;2022-08-11T08:17:54;31.20;99.90
5364;DHT22;2705;41.410;2.160;2022-08-11T08:20:46;31.10;99.90
5364;DHT22;2705;41.410;2.160;2022-08-11T08:23:18;31.10;99.90
5364;DHT22;2705;41.410;2.160;2022-08-11T08:26:02;31.20;99.90
5364;DHT22;2705;41.410;2.160;2022-08-11T08:28:44;31.30;99.90
5364;DHT22;2705;41.410;2.160;2022-08-11T08:31:14;31.30;99.90
5364;DHT22;2705;41.410;2.160;2022-08-11T08:33:44;31.30;99.90
5364;DHT22;2705;41.410;2.160;2022-08-11T08:36:13;31.50;99.90
5364;DHT22;2705;41.410;2.160;2022-08-11T08:38:47;31.70;99.90
5364;DHT22;2705;41.410;2.160;2022-08-11T08:41:21;31.60;99.90
5364;DHT22;2705;41.410;2.160;2022-08-11T08:43:52;31.30;99.90
5364;DHT22;2705;41.410;2.160;2022-08-11T08:46:44;31.10;99.90
5364;DHT22;2705;41.410;2.160;2022-08-11T08:49:18;31.50;99.90
5364;DHT22;2705;41.410;2.160;2022-08-11T08:51:53;31.60;99.90
5364;DHT22;2705;41.410;2.160;2022-08-11T08:54:44;31.60;99.90
5364;DHT22;2705;41.410;2.160;2022-08-11T08:57:15;31.50;99.90
5364;DHT22;2705;41.410;2.160;2022-08-11T08:59:48;31.60;99.90
5364;DHT22;2705;41.410;2.160;2022-08-11T09:02:22;31.50;99.90
5364;DHT22;2705;41.410;2.160;2022-08-11T09:05:04;31.70;99.90
5364;DHT22;2705;41.410;2.160;2022-08-11T09:07:34;31.90;99.90
5364;DHT22;2705;41.410;2.160;2022-08-11T09:10:08;32.00;99.90
5364;DHT22;2705;41.410;2.160;2022-08-11T09:12:40;32.10;99.90
5364;DHT22;2705;41.410;2.160;2022-08-11T09:15:11;32.10;99.90
5364;DHT22;2705;41.410;2.160;2022-08-11T09:17:47;32.20;99.90
5364;DHT22;2705;41.410;2.160;2022-08-11T09:20:25;32.50;99.90
5364;DHT22;2705;41.410;2.160;2022-08-11T09:22:56;32.50;99.90
5364;DHT22;2705;41.410;2.160;2022-08-11T09:26:04;32.50;99.90
5364;DHT22;2705;41.410;2.160;2022-08-11T09:28:58;32.60;99.90
5364;DHT22;2705;41.410;2.160;2022-08-11T09:31:29;32.70;99.90
5364;DHT22;2705;41.410;2.160;2022-08-11T09:34:07;32.70;99.90
5364;DHT22;2705;41.410;2.160;2022-08-11T09:36:40;32.30;99.90
5364;DHT22;2705;41.410;2.160;2022-08-11T09:39:30;32.40;99.90
5364;DHT22;2705;41.410;2.160;2022-08-11T09:42:19;32.60;99.90
5364;DHT22;2705;41.410;2.160;2022-08-11T09:44:51;32.40;99.90
5364;DHT22;2705;41.410;2.160;2022-08-11T09:47:22;32.50;99.90
5364;DHT22;2705;41.410;2.160;2022-08-11T09:49:59;32.70;99.90
5364;DHT22;2705;41.410;2.160;2022-08-11T09:52:35;32.80;99.90
5364;DHT22;2705;41.410;2.160;2022-08-11T09:55:24;32.60;99.90
5364;DHT22;2705;41.410;2.160;2022-08-11T09:57:53;32.70;99.90
5364;DHT22;2705;41.410;2.160;2022-08-11T10:01:00;32.60;99.90
5364;DHT22;2705;41.410;2.160;2022-08-11T10:03:30;32.70;99.90
5364;DHT22;2705;41.410;2.160;2022-08-11T10:06:07;32.80;99.90
5364;DHT22;2705;41.410;2.160;2022-08-11T10:09:02;33.00;99.90
5364;DHT22;2705;41.410;2.160;2022-08-11T10:11:34;33.10;99.90
5364;DHT22;2705;41.410;2.160;2022-08-11T10:14:06;33.20;99.90
5364;DHT22;2705;41.410;2.160;2022-08-11T10:17:05;33.40;99.90
5364;DHT22;2705;41.410;2.160;2022-08-11T10:19:35;33.30;99.90
5364;DHT22;2705;41.410;2.160;2022-08-11T10:22:06;33.40;99.90
5364;DHT22;2705;41.410;2.160;2022-08-11T10:24:55;33.50;99.90
5364;DHT22;2705;41.410;2.160;2022-08-11T10:27:47;33.50;99.90
5364;DHT22;2705;41.410;2.160;2022-08-11T10:30:40;33.70;99.90
5364;DHT22;2705;41.410;2.160;2022-08-11T10:33:27;33.70;99.90
5364;DHT22;2705;41.410;2.160;2022-08-11T10:36:26;33.80;99.90
5364;DHT22;2705;41.410;2.160;2022-08-11T10:38:58;33.70;99.90
5364;DHT22;2705;41.410;2.160;2022-08-11T10:41:29;33.70;99.90
5364;DHT22;2705;41.410;2.160;2022-08-11T10:44:38;33.60;99.90
5364;DHT22;2705;41.410;2.160;2022-08-11T10:47:11;33.60;99.90
5364;DHT22;2705;41.410;2.160;2022-08-11T10:50:02;33.70;99.90
5364;DHT22;2705;41.410;2.160;2022-08-11T10:52:50;33.40;99.90
5364;DHT22;2705;41.410;2.160;2022-08-11T10:55:37;33.70;99.90
5364;DHT22;2705;41.410;2.160;2022-08-11T10:58:26;34.00;99.90
5364;DHT22;2705;41.410;2.160;2022-08-11T11:01:21;33.80;99.90
5364;DHT22;2705;41.410;2.160;2022-08-11T11:03:52;33.90;99.90
5364;DHT22;2705;41.410;2.160;2022-08-11T11:06:27;33.60;99.90
5364;DHT22;2705;41.410;2.160;2022-08-11T11:09:03;33.50;99.90
5364;DHT22;2705;41.410;2.160;2022-08-11T11:11:36;33.90;99.90
5364;DHT22;2705;41.410;2.160;2022-08-11T11:14:29;34.20;99.90
5364;DHT22;2705;41.410;2.160;2022-08-11T11:17:31;34.10;99.90
5364;DHT22;2705;41.410;2.160;2022-08-11T11:20:24;33.60;99.90
5364;DHT22;2705;41.410;2.160;2022-08-11T11:23:09;33.70;99.90
5364;DHT22;2705;41.410;2.160;2022-08-11T11:26:08;34.10;99.90
5364;DHT22;2705;41.410;2.160;2022-08-11T11:29:24;34.10;99.90
5364;DHT22;2705;41.410;2.160;2022-08-11T11:32:21;34.00;99.90
5364;DHT22;2705;41.410;2.160;2022-08-11T11:35:16;34.20;99.90
5364;DHT22;2705;41.410;2.160;2022-08-11T11:37:50;33.60;99.90
5364;DHT22;2705;41.410;2.160;2022-08-11T11:40:31;33.50;99.90
5364;DHT22;2705;41.410;2.160;2022-08-11T11:43:00;33.80;99.90
5364;DHT22;2705;41.410;2.160;2022-08-11T11:45:30;33.50;99.90
5364;DHT22;2705;41.410;2.160;2022-08-11T11:48:01;33.70;99.90
5364;DHT22;2705;41.410;2.160;2022-08-11T11:50:34;33.70;99.90
5364;DHT22;2705;41.410;2.160;2022-08-11T11:53:06;33.80;99.90
5364;DHT22;2705;41.410;2.160;2022-08-11T11:55:35;33.70;99.90
5364;DHT22;2705;41.410;2.160;2022-08-11T11:58:05;33.90;99.90
5364;DHT22;2705;41.410;2.160;2022-08-11T12:00:54;33.80;99.90
5364;DHT22;2705;41.410;2.160;2022-08-11T12:03:45;34.10;99.90
5364;DHT22;2705;41.410;2.160;2022-08-11T12:06:16;34.20;99.90
5364;DHT22;2705;41.410;2.160;2022-08-11T12:08:49;34.40;99.90
5364;DHT22;2705;41.410;2.160;2022-08-11T12:11:19;34.50;99.90
5364;DHT22;2705;41.410;2.160;2022-08-11T12:14:10;33.80;99.90
5364;DHT22;2705;41.410;2.160;2022-08-11T12:16:42;33.80;99.90
5364;DHT22;2705;41.410;2.160;2022-08-11T12:19:15;33.90;99.90
5364;DHT22;2705;41.410;2.160;2022-08-11T12:21:45;33.80;99.90
5364;DHT22;2705;41.410;2.160;2022-08-11T12:24:30;33.60;99.90
5364;DHT22;2705;41.410;2.160;2022-08-11T12:27:17;33.50;99.90
5364;DHT22;2705;41.410;2.160;2022-08-11T12:29:55;33.60;99.90
5364;DHT22;2705;41.410;2.160;2022-08-11T12:32:27;33.90;99.90
5364;DHT22;2705;41.410;2.160;2022-08-11T12:34:59;34.10;99.90
5364;DHT22;2705;41.410;2.160;2022-08-11T12:37:31;34.00;99.90
5364;DHT22;2705;41.410;2.160;2022-08-11T12:40:04;34.20;99.90
5364;DHT22;2705;41.410;2.160;2022-08-11T12:43:14;34.00;99.90
5364;DHT22;2705;41.410;2.160;2022-08-11T12:46:11;34.30;99.90
5364;DHT22;2705;41.410;2.160;2022-08-11T12:48:44;34.50;99.90
5364;DHT22;2705;41.410;2.160;2022-08-11T12:51:36;34.70;99.90
5364;DHT22;2705;41.410;2.160;2022-08-11T12:54:47;34.30;99.90
5364;DHT22;2705;41.410;2.160;2022-08-11T12:57:25;34.20;99.90
5364;DHT22;2705;41.410;2.160;2022-08-11T13:00:13;34.30;99.90
5364;DHT22;2705;41.410;2.160;2022-08-11T13:03:01;33.90;99.90
5364;DHT22;2705;41.410;2.160;2022-08-11T13:05:59;34.30;99.90
5364;DHT22;2705;41.410;2.160;2022-08-11T13:08:33;34.20;99.90
5364;DHT22;2705;41.410;2.160;2022-08-11T13:11:04;34.10;99.90
5364;DHT22;2705;41.410;2.160;2022-08-11T13:14:11;33.90;99.90
5364;DHT22;2705;41.410;2.160;2022-08-11T13:16:43;33.90;99.90
5364;DHT22;2705;41.410;2.160;2022-08-11T13:19:31;34.30;99.90
5364;DHT22;2705;41.410;2.160;2022-08-11T13:22:01;34.50;99.90
5364;DHT22;2705;41.410;2.160;2022-08-11T13:24:35;34.50;99.90
5364;DHT22;2705;41.410;2.160;2022-08-11T13:27:05;34.30;99.90
5364;DHT22;2705;41.410;2.160;2022-08-11T13:29:35;34.60;99.90
5364;DHT22;2705;41.410;2.160;2022-08-11T13:32:07;34.50;99.90
5364;DHT22;2705;41.410;2.160;2022-08-11T13:34:39;34.50;99.90
5364;DHT22;2705;41.410;2.160;2022-08-11T13:37:10;34.70;99.90
5364;DHT22;2705;41.410;2.160;2022-08-11T13:39:44;34.60;99.90
5364;DHT22;2705;41.410;2.160;2022-08-11T13:42:15;34.40;99.90
5364;DHT22;2705;41.410;2.160;2022-08-11T13:44:47;34.30;99.90
5364;DHT22;2705;41.410;2.160;2022-08-11T13:47:16;34.30;99.90
5364;DHT22;2705;41.410;2.160;2022-08-11T13:49:52;34.60;99.90
5364;DHT22;2705;41.410;2.160;2022-08-11T13:52:31;34.50;99.90
5364;DHT22;2705;41.410;2.160;2022-08-11T13:55:02;34.70;99.90
5364;DHT22;2705;41.410;2.160;2022-08-11T13:57:32;34.60;99.90
5364;DHT22;2705;41.410;2.160;2022-08-11T14:00:23;35.30;99.90
5364;DHT22;2705;41.410;2.160;2022-08-11T14:02:55;35.50;99.90
5364;DHT22;2705;41.410;2.160;2022-08-11T14:05:28;35.70;99.90
5364;DHT22;2705;41.410;2.160;2022-08-11T14:08:01;36.00;99.90
5364;DHT22;2705;41.410;2.160;2022-08-11T14:10:33;35.30;99.90
5364;DHT22;2705;41.410;2.160;2022-08-11T14:13:07;35.40;97.80
5364;DHT22;2705;41.410;2.160;2022-08-11T14:16:11;35.70;98.40
5364;DHT22;2705;41.410;2.160;2022-08-11T14:18:47;35.80;98.20
5364;DHT22;2705;41.410;2.160;2022-08-11T14:21:22;35.60;97.50
5364;DHT22;2705;41.410;2.160;2022-08-11T14:24:10;36.20;97.30
5364;DHT22;2705;41.410;2.160;2022-08-11T14:26:41;36.50;96.10
5364;DHT22;2705;41.410;2.160;2022-08-11T14:29:14;36.00;96.10
5364;DHT22;2705;41.410;2.160;2022-08-11T14:31:47;36.40;96.20
5364;DHT22;2705;41.410;2.160;2022-08-11T14:34:18;36.50;96.10
5364;DHT22;2705;41.410;2.160;2022-08-11T14:36:51;36.30;96.40
5364;DHT22;2705;41.410;2.160;2022-08-11T14:39:22;36.10;96.70
5364;DHT22;2705;41.410;2.160;2022-08-11T14:41:55;35.80;97.20
5364;DHT22;2705;41.410;2.160;2022-08-11T14:44:44;36.50;97.40
5364;DHT22;2705;41.410;2.160;2022-08-11T14:47:33;36.30;97.50
5364;DHT22;2705;41.410;2.160;2022-08-11T14:50:04;36.30;99.20
5364;DHT22;2705;41.410;2.160;2022-08-11T14:52:42;36.50;98.00
5364;DHT22;2705;41.410;2.160;2022-08-11T14:55:13;36.60;97.80
5364;DHT22;2705;41.410;2.160;2022-08-11T14:58:01;36.40;98.20
5364;DHT22;2705;41.410;2.160;2022-08-11T15:00:31;36.40;98.50
5364;DHT22;2705;41.410;2.160;2022-08-11T15:03:03;36.10;98.90
5364;DHT22;2705;41.410;2.160;2022-08-11T15:05:41;36.60;98.30
5364;DHT22;2705;41.410;2.160;2022-08-11T15:08:42;36.70;98.50
5364;DHT22;2705;41.410;2.160;2022-08-11T15:11:25;36.40;97.80
5364;DHT22;2705;41.410;2.160;2022-08-11T15:14:16;35.90;97.30
5364;DHT22;2705;41.410;2.160;2022-08-11T15:17:05;34.90;98.20
5364;DHT22;2705;41.410;2.160;2022-08-11T15:19:40;34.60;99.30
5364;DHT22;2705;41.410;2.160;2022-08-11T15:22:31;34.20;99.90
5364;DHT22;2705;41.410;2.160;2022-08-11T15:25:18;33.90;99.90
5364;DHT22;2705;41.410;2.160;2022-08-11T15:27:49;33.90;99.90
5364;DHT22;2705;41.410;2.160;2022-08-11T15:30:37;33.90;99.90
5364;DHT22;2705;41.410;2.160;2022-08-11T15:33:25;33.80;99.90
5364;DHT22;2705;41.410;2.160;2022-08-11T15:36:13;33.60;99.90
5364;DHT22;2705;41.410;2.160;2022-08-11T15:39:02;33.40;99.90
5364;DHT22;2705;41.410;2.160;2022-08-11T15:41:40;33.30;99.90
5364;DHT22;2705;41.410;2.160;2022-08-11T15:44:31;33.60;99.90
5364;DHT22;2705;41.410;2.160;2022-08-11T15:47:37;33.30;99.90
5364;DHT22;2705;41.410;2.160;2022-08-11T15:50:12;33.30;99.90
5364;DHT22;2705;41.410;2.160;2022-08-11T15:52:51;33.10;99.90
5364;DHT22;2705;41.410;2.160;2022-08-11T15:55:22;33.00;99.90
5364;DHT22;2705;41.410;2.160;2022-08-11T15:57:53;33.00;99.90
5364;DHT22;2705;41.410;2.160;2022-08-11T16:00:41;33.10;99.90
5364;DHT22;2705;41.410;2.160;2022-08-11T16:03:43;33.10;99.90
5364;DHT22;2705;41.410;2.160;2022-08-11T16:06:36;33.20;99.90
5364;DHT22;2705;41.410;2.160;2022-08-11T16:09:21;33.00;99.90
5364;DHT22;2705;41.410;2.160;2022-08-11T16:11:56;33.30;99.90
5364;DHT22;2705;41.410;2.160;2022-08-11T16:14:28;33.00;99.90
5364;DHT22;2705;41.410;2.160;2022-08-11T16:17:18;32.90;99.90
5364;DHT22;2705;41.410;2.160;2022-08-11T16:19:52;32.80;99.90
5364;DHT22;2705;41.410;2.160;2022-08-11T16:22:23;32.80;99.90
5364;DHT22;2705;41.410;2.160;2022-08-11T16:25:02;32.70;99.90
5364;DHT22;2705;41.410;2.160;2022-08-11T16:28:14;32.70;99.90
5364;DHT22;2705;41.410;2.160;2022-08-11T16:30:45;33.00;99.90
5364;DHT22;2705;41.410;2.160;2022-08-11T16:33:15;33.00;99.90
5364;DHT22;2705;41.410;2.160;2022-08-11T16:36:07;32.80;99.90
5364;DHT22;2705;41.410;2.160;2022-08-11T16:38:56;32.90;99.90
5364;DHT22;2705;41.410;2.160;2022-08-11T16:41:27;32.80;99.90
5364;DHT22;2705;41.410;2.160;2022-08-11T16:44:17;32.50;99.90
5364;DHT22;2705;41.410;2.160;2022-08-11T16:47:06;32.40;99.90
5364;DHT22;2705;41.410;2.160;2022-08-11T16:49:39;32.60;99.90
5364;DHT22;2705;41.410;2.160;2022-08-11T16:52:22;32.30;99.90
5364;DHT22;2705;41.410;2.160;2022-08-11T16:54:51;32.20;99.90
5364;DHT22;2705;41.410;2.160;2022-08-11T16:57:22;32.10;99.90
5364;DHT22;2705;41.410;2.160;2022-08-11T17:00:11;32.50;99.90
5364;DHT22;2705;41.410;2.160;2022-08-11T17:02:44;32.60;99.90
5364;DHT22;2705;41.410;2.160;2022-08-11T17:05:33;32.70;99.90
5364;DHT22;2705;41.410;2.160;2022-08-11T17:08:28;32.50;99.90
5364;DHT22;2705;41.410;2.160;2022-08-11T17:11:26;32.50;99.90
5364;DHT22;2705;41.410;2.160;2022-08-11T17:14:35;32.40;99.90
5364;DHT22;2705;41.410;2.160;2022-08-11T17:17:09;32.50;99.90
5364;DHT22;2705;41.410;2.160;2022-08-11T17:19:45;32.30;99.90
5364;DHT22;2705;41.410;2.160;2022-08-11T17:22:36;32.20;99.90
5364;DHT22;2705;41.410;2.160;2022-08-11T17:25:26;32.20;99.90
5364;DHT22;2705;41.410;2.160;2022-08-11T17:27:56;32.20;99.90
5364;DHT22;2705;41.410;2.160;2022-08-11T17:30:28;32.20;99.90
5364;DHT22;2705;41.410;2.160;2022-08-11T17:33:11;32.20;99.90
5364;DHT22;2705;41.410;2.160;2022-08-11T17:36:00;32.20;99.90
5364;DHT22;2705;41.410;2.160;2022-08-11T17:38:30;32.10;99.90
5364;DHT22;2705;41.410;2.160;2022-08-11T17:41:03;31.90;99.90
5364;DHT22;2705;41.410;2.160;2022-08-11T17:43:51;32.00;99.90
5364;DHT22;2705;41.410;2.160;2022-08-11T17:46:39;32.00;99.90
5364;DHT22;2705;41.410;2.160;2022-08-11T17:49:32;32.00;99.90
5364;DHT22;2705;41.410;2.160;2022-08-11T17:52:05;32.20;99.90
5364;DHT22;2705;41.410;2.160;2022-08-11T17:55:24;32.20;99.90
5364;DHT22;2705;41.410;2.160;2022-08-11T17:58:21;32.00;99.90
5364;DHT22;2705;41.410;2.160;2022-08-11T18:01:10;32.20;99.90
5364;DHT22;2705;41.410;2.160;2022-08-11T18:03:40;32.10;99.90
5364;DHT22;2705;41.410;2.160;2022-08-11T18:06:27;31.90;99.90
5364;DHT22;2705;41.410;2.160;2022-08-11T18:09:03;31.90;99.90
5364;DHT22;2705;41.410;2.160;2022-08-11T18:11:51;32.20;99.90
5364;DHT22;2705;41.410;2.160;2022-08-11T18:14:44;32.00;99.90
5364;DHT22;2705;41.410;2.160;2022-08-11T18:17:32;32.00;99.90
5364;DHT22;2705;41.410;2.160;2022-08-11T18:20:20;31.90;99.90
5364;DHT22;2705;41.410;2.160;2022-08-11T18:23:17;32.00;99.90
5364;DHT22;2705;41.410;2.160;2022-08-11T18:26:18;31.90;99.90
5364;DHT22;2705;41.410;2.160;2022-08-11T18:29:06;31.90;99.90
5364;DHT22;2705;41.410;2.160;2022-08-11T18:31:56;31.80;99.90
5364;DHT22;2705;41.410;2.160;2022-08-11T18:34:53;31.70;99.90
5364;DHT22;2705;41.410;2.160;2022-08-11T18:37:45;31.70;99.90
5364;DHT22;2705;41.410;2.160;2022-08-11T18:40:32;31.60;99.90
5364;DHT22;2705;41.410;2.160;2022-08-11T18:43:23;31.40;99.90
5364;DHT22;2705;41.410;2.160;2022-08-11T18:46:13;31.40;99.90